createdAt,value
2023-05-08T16:18:35.984Z,6.80
2023-05-08T16:20:25.135Z,5.20
2023-05-08T16:20:32.317Z,5.70
2023-05-08T16:20:41.503Z,5.90
2023-05-08T16:21:06.239Z,5.20
2023-05-08T16:21:12.183Z,4.30
2023-05-08T16:21:25.619Z,4.60
2023-05-08T16:21:33.674Z,5.30
2023-05-08T16:21:50.086Z,5.70
2023-05-08T16:21:58.243Z,5.40
2023-05-08T16:22:06.556Z,5.50
2023-05-08T16:22:16.572Z,5.60
2023-05-08T16:22:26.819Z,5.60
2023-05-08T16:22:36.761Z,5.80
2023-05-08T16:22:56.878Z,8.80
2023-05-08T16:23:10.670Z,8.60
2023-05-08T16:23:17.093Z,10.50
2023-05-08T16:23:27.209Z,9.80
2023-05-08T16:23:37.630Z,11.00
2023-05-08T16:23:47.770Z,8.00
2023-05-08T16:23:57.741Z,7.80
2023-05-08T16:24:20.835Z,6.60
2023-05-08T16:24:28.760Z,9.90
2023-05-08T16:24:42.070Z,9.10
2023-05-08T16:24:49.662Z,9.50
2023-05-08T16:25:00.453Z,6.40
2023-05-08T16:25:08.975Z,10.20
2023-05-08T16:25:31.239Z,10.30
2023-05-08T16:25:39.850Z,5.90
2023-05-08T16:25:51.554Z,5.10
2023-05-08T16:26:00.345Z,4.90
2023-05-08T16:26:09.381Z,4.60
2023-05-08T16:26:19.931Z,4.30
2023-05-08T16:26:34.327Z,4.00
2023-05-08T16:26:42.972Z,4.20
2023-05-08T16:27:03.783Z,4.20
2023-05-08T16:27:11.310Z,4.00
2023-05-08T16:27:22.007Z,5.30
2023-05-08T16:27:34.708Z,6.20
2023-05-08T16:27:45.092Z,6.50
2023-05-08T16:27:51.258Z,5.20
2023-05-08T16:28:15.944Z,3.70
2023-05-08T16:28:29.357Z,5.60
2023-05-08T16:28:38.700Z,5.50
2023-05-08T16:28:46.930Z,4.70
2023-05-08T16:28:56.215Z,4.30
2023-05-08T16:29:06.284Z,4.80
2023-05-08T16:29:16.889Z,5.00
2023-05-08T16:29:36.172Z,4.40
2023-05-08T16:29:46.215Z,4.30
2023-05-08T16:29:56.392Z,4.20
2023-05-08T16:30:06.413Z,4.20
2023-05-08T16:30:16.969Z,4.10
2023-05-08T16:30:31.444Z,4.00
2023-05-08T16:30:41.711Z,4.10
2023-05-08T16:30:50.321Z,3.80
2023-05-08T16:31:03.705Z,3.90
2023-05-08T16:31:15.522Z,3.70
2023-05-08T16:31:33.542Z,4.10
2023-05-08T16:31:40.798Z,4.40
2023-05-08T16:31:50.905Z,4.20
2023-05-08T16:32:00.736Z,3.70
2023-05-08T16:32:10.132Z,3.90
2023-05-08T16:32:20.262Z,4.10
2023-05-08T16:32:40.394Z,4.40
2023-05-08T16:32:51.533Z,4.70
2023-05-08T16:33:01.040Z,4.60
2023-05-08T16:33:11.169Z,4.30
2023-05-08T16:33:21.317Z,4.00
2023-05-08T16:33:32.956Z,4.00
2023-05-08T16:33:41.169Z,4.30
2023-05-08T16:34:01.985Z,4.60
2023-05-08T16:34:13.256Z,4.20
2023-05-08T16:34:22.297Z,4.40
2023-05-08T16:34:32.019Z,4.30
2023-05-08T16:34:43.488Z,4.40
2023-05-08T16:34:53.858Z,4.20
2023-05-08T16:35:02.389Z,4.40
2023-05-08T16:35:27.750Z,16.30
2023-05-08T16:35:44.696Z,16.70
2023-05-08T16:35:55.633Z,5.10
2023-05-08T16:36:01.608Z,5.30
2023-05-08T16:36:11.687Z,5.50
2023-05-08T16:36:21.735Z,6.10
2023-05-08T16:36:31.805Z,6.40
2023-05-08T16:36:52.209Z,7.20
2023-05-08T16:37:02.281Z,8.00
2023-05-08T16:37:12.424Z,8.00
2023-05-08T16:37:22.410Z,6.50
2023-05-08T16:37:32.558Z,5.00
2023-05-08T16:37:42.629Z,4.40
2023-05-08T16:37:52.746Z,4.30
2023-05-08T16:38:02.801Z,4.20
2023-05-08T16:38:12.900Z,4.10
2023-05-08T16:38:23.004Z,4.40
2023-05-08T16:38:33.123Z,4.30
2023-05-08T16:38:43.699Z,4.50
2023-05-08T16:38:53.894Z,4.20
2023-05-08T16:39:03.940Z,4.30
2023-05-08T16:39:16.284Z,4.20
2023-05-08T16:39:32.734Z,4.80
2023-05-08T16:39:38.894Z,5.20
2023-05-08T16:39:48.791Z,4.80
2023-05-08T16:39:58.997Z,5.60
2023-05-08T16:40:09.217Z,6.80
2023-05-08T16:40:19.079Z,7.60
2023-05-08T16:40:39.379Z,4.60
2023-05-08T16:40:49.471Z,3.90
2023-05-08T16:41:00.564Z,4.30
2023-05-08T16:41:09.969Z,5.90
2023-05-08T16:41:19.922Z,6.90
2023-05-08T16:41:30.084Z,6.60
2023-05-08T16:41:40.040Z,4.50
2023-05-08T16:41:50.231Z,3.70
2023-05-08T16:42:10.420Z,3.40
2023-05-08T16:42:20.690Z,3.30
2023-05-08T16:42:30.706Z,3.30
2023-05-08T16:42:40.755Z,3.60
2023-05-08T16:42:51.076Z,3.50
2023-05-08T16:43:01.085Z,3.60
2023-05-08T16:43:11.248Z,3.30
2023-05-08T16:43:21.347Z,3.60
2023-05-08T16:43:31.500Z,3.80
2023-05-08T16:43:41.545Z,4.00
2023-05-08T16:43:51.682Z,4.10
2023-05-08T16:44:02.010Z,4.00
2023-05-08T16:44:12.091Z,4.10
2023-05-08T16:44:22.185Z,5.60
2023-05-08T16:44:32.360Z,7.50
2023-05-08T16:44:42.340Z,8.20
2023-05-08T16:44:52.543Z,10.10
2023-05-08T16:45:02.667Z,9.20
2023-05-08T16:45:13.219Z,9.30
2023-05-08T16:45:25.419Z,5.80
2023-05-08T16:45:33.261Z,5.00
2023-05-08T16:45:43.267Z,4.50
2023-05-08T16:45:54.349Z,4.30
2023-05-08T16:46:03.535Z,4.40
2023-05-08T16:46:13.858Z,4.40
2023-05-08T16:46:33.979Z,4.00
2023-05-08T16:46:44.001Z,3.50
2023-05-08T16:46:54.088Z,3.80
2023-05-08T16:47:04.396Z,4.40
2023-05-08T16:47:14.422Z,4.80
2023-05-08T16:47:24.452Z,5.10
2023-05-08T16:47:35.909Z,4.90
2023-05-08T16:47:45.727Z,5.20
2023-05-08T16:47:56.523Z,7.30
2023-05-08T16:48:05.130Z,9.00
2023-05-08T16:48:16.108Z,10.00
2023-05-08T16:48:25.351Z,10.30
2023-05-08T16:48:44.481Z,10.00
2023-05-08T16:48:55.710Z,9.70
2023-05-08T16:49:06.506Z,9.00
2023-05-08T16:49:15.862Z,9.30
2023-05-08T16:49:27.017Z,7.40
2023-05-08T16:49:36.187Z,6.80
2023-05-08T16:49:46.248Z,5.40
2023-05-08T16:49:56.328Z,5.00
2023-05-08T16:50:07.134Z,4.90
2023-05-08T16:50:16.539Z,4.70
2023-05-08T16:50:35.936Z,4.90
2023-05-08T16:50:47.072Z,4.80
2023-05-08T16:50:57.093Z,15.00
2023-05-08T16:51:07.188Z,68.10
2023-05-08T16:51:17.463Z,127.10
2023-05-08T16:51:28.233Z,123.00
2023-05-08T16:51:37.594Z,69.30
2023-05-08T16:51:47.831Z,8.20
2023-05-08T16:51:57.848Z,7.20
2023-05-08T16:52:08.224Z,18.10
2023-05-08T16:52:18.118Z,19.20
2023-05-08T16:52:28.299Z,18.20
2023-05-08T16:52:38.408Z,7.90
2023-05-08T16:52:48.509Z,10.10
2023-05-08T16:52:58.627Z,10.60
2023-05-08T16:53:08.728Z,10.20
2023-05-08T16:53:18.952Z,8.00
2023-05-08T16:53:28.968Z,6.30
2023-05-08T16:53:39.343Z,21.50
2023-05-08T16:53:49.274Z,23.80
2023-05-08T16:53:59.518Z,23.70
2023-05-08T16:54:09.397Z,172.90
2023-05-08T16:54:19.736Z,171.90
2023-05-08T16:54:29.700Z,172.40
2023-05-08T16:54:39.886Z,7.50
2023-05-08T16:54:49.969Z,6.00
2023-05-08T16:55:00.321Z,5.30
2023-05-08T16:55:10.194Z,5.80
2023-05-08T16:55:20.343Z,6.60
2023-05-08T16:55:30.752Z,7.30
2023-05-08T16:55:40.644Z,7.10
2023-05-08T16:55:50.752Z,6.30
2023-05-08T16:56:00.853Z,7.30
2023-05-08T16:56:11.043Z,9.50
2023-05-08T16:56:21.336Z,11.20
2023-05-08T16:56:32.378Z,10.20
2023-05-08T16:56:41.349Z,8.70
2023-05-08T16:56:51.535Z,7.80
2023-05-08T16:57:02.678Z,8.50
2023-05-08T16:57:11.759Z,7.10
2023-05-08T16:57:21.798Z,5.90
2023-05-08T16:57:42.137Z,4.20
2023-05-08T16:57:52.266Z,4.00
2023-05-08T16:58:02.364Z,4.20
2023-05-08T16:58:12.702Z,4.60
2023-05-08T16:58:22.731Z,6.80
2023-05-08T16:58:33.041Z,12.40
2023-05-08T16:58:43.122Z,15.10
2023-05-08T16:58:53.000Z,13.50
2023-05-08T16:59:03.248Z,8.70
2023-05-08T16:59:13.363Z,6.20
2023-05-08T16:59:23.357Z,5.80
2023-05-08T16:59:33.512Z,5.70
2023-05-08T16:59:43.621Z,5.40
2023-05-08T16:59:53.789Z,6.40
2023-05-08T17:00:03.862Z,8.20
2023-05-08T17:00:14.118Z,8.20
2023-05-08T17:00:24.172Z,6.60
2023-05-08T17:00:34.268Z,4.50
2023-05-08T17:00:44.337Z,4.20
2023-05-08T17:00:54.426Z,4.30
2023-05-08T17:01:04.910Z,4.40
2023-05-08T17:01:14.890Z,4.60
2023-05-08T17:01:24.990Z,4.60
2023-05-08T17:01:35.166Z,4.60
2023-05-08T17:01:45.230Z,4.80
2023-05-08T17:01:55.223Z,4.70
2023-05-08T17:02:05.488Z,5.10
2023-05-08T17:02:15.415Z,5.00
2023-05-08T17:02:25.657Z,5.40
2023-05-08T17:02:35.877Z,5.40
2023-05-08T17:02:45.998Z,5.20
2023-05-08T17:02:56.183Z,5.10
2023-05-08T17:03:06.294Z,4.70
2023-05-08T17:03:16.552Z,4.70
2023-05-08T17:03:26.446Z,4.70
2023-05-08T17:03:36.734Z,4.30
2023-05-08T17:03:46.709Z,4.00
2023-05-08T17:03:56.964Z,3.80
2023-05-08T17:04:07.174Z,3.90
2023-05-08T17:04:18.290Z,3.90
2023-05-08T17:04:29.043Z,3.80
2023-05-08T17:04:37.471Z,3.90
2023-05-08T17:04:47.847Z,3.90
2023-05-08T17:04:57.718Z,4.60
2023-05-08T17:05:07.972Z,5.00
2023-05-08T17:05:18.748Z,5.40
2023-05-08T17:05:28.078Z,5.00
2023-05-08T17:05:38.139Z,4.60
2023-05-08T17:05:48.402Z,4.20
2023-05-08T17:05:58.470Z,4.10
2023-05-08T17:06:08.627Z,4.40
2023-05-08T17:06:21.857Z,4.50
2023-05-08T17:06:28.862Z,4.60
2023-05-08T17:06:39.034Z,4.30
2023-05-08T17:06:49.173Z,4.60
2023-05-08T17:06:59.295Z,6.60
2023-05-08T17:07:10.219Z,7.20
2023-05-08T17:07:30.811Z,5.70
2023-05-08T17:07:39.785Z,5.60
2023-05-08T17:07:49.896Z,7.00
2023-05-08T17:07:59.990Z,8.30
2023-05-08T17:08:10.138Z,13.20
2023-05-08T17:08:20.250Z,12.40
2023-05-08T17:08:40.568Z,11.30
2023-05-08T17:08:51.730Z,15.20
2023-05-08T17:09:00.805Z,15.90
2023-05-08T17:09:11.036Z,13.10
2023-05-08T17:09:21.632Z,9.20
2023-05-08T17:09:31.339Z,14.90
2023-05-08T17:09:41.349Z,17.60
2023-05-08T17:10:01.607Z,19.90
2023-05-08T17:10:11.988Z,14.60
2023-05-08T17:10:21.887Z,11.90
2023-05-08T17:10:32.088Z,8.90
2023-05-08T17:10:42.111Z,6.70
2023-05-08T17:10:52.252Z,4.00
2023-05-08T17:11:03.194Z,4.00
2023-05-08T17:11:12.596Z,4.10
2023-05-08T17:11:22.491Z,4.50
2023-05-08T17:11:32.891Z,4.10
2023-05-08T17:11:43.738Z,4.10
2023-05-08T17:11:53.046Z,4.10
2023-05-08T17:12:13.260Z,4.70
2023-05-08T17:12:23.318Z,5.00
2023-05-08T17:12:33.492Z,5.10
2023-05-08T17:12:43.567Z,5.10
2023-05-08T17:12:54.855Z,14.90
2023-05-08T17:13:03.865Z,15.00
2023-05-08T17:13:14.063Z,14.90
2023-05-08T17:13:24.272Z,4.60
2023-05-08T17:13:34.189Z,3.90
2023-05-08T17:13:44.469Z,3.80
2023-05-08T17:14:04.601Z,4.50
2023-05-08T17:14:15.593Z,4.30
2023-05-08T17:14:25.114Z,4.00
2023-05-08T17:14:35.077Z,4.70
2023-05-08T17:14:45.111Z,4.80
2023-05-08T17:14:55.232Z,5.50
2023-05-08T17:15:05.264Z,5.20
2023-05-08T17:15:25.643Z,6.30
2023-05-08T17:15:36.690Z,6.00
2023-05-08T17:15:45.840Z,5.10
2023-05-08T17:15:56.046Z,4.80
2023-05-08T17:16:06.158Z,4.30
2023-05-08T17:16:18.477Z,4.10
2023-05-08T17:16:26.458Z,3.80
2023-05-08T17:16:46.848Z,4.00
2023-05-08T17:16:56.855Z,4.20
2023-05-08T17:17:06.828Z,4.80
2023-05-08T17:17:16.907Z,4.50
2023-05-08T17:17:27.626Z,4.20
2023-05-08T17:17:37.164Z,3.90
2023-05-08T17:17:47.374Z,4.40
2023-05-08T17:17:58.090Z,5.40
2023-05-08T17:18:07.774Z,6.00
2023-05-08T17:18:17.700Z,5.80
2023-05-08T17:18:27.779Z,5.00
2023-05-08T17:18:37.881Z,4.60
2023-05-08T17:18:48.236Z,4.70
2023-05-08T17:18:58.243Z,4.80
2023-05-08T17:19:08.277Z,4.70
2023-05-08T17:19:18.561Z,5.60
2023-05-08T17:19:28.418Z,6.00
2023-05-08T17:19:38.556Z,5.60
2023-05-08T17:19:48.713Z,4.50
2023-05-08T17:19:58.978Z,4.00
2023-05-08T17:20:08.907Z,3.90
2023-05-08T17:20:19.137Z,3.80
2023-05-08T17:20:29.139Z,3.70
2023-05-08T17:20:39.367Z,3.80
2023-05-08T17:20:49.571Z,3.50
2023-05-08T17:21:00.694Z,3.70
2023-05-08T17:21:09.776Z,3.70
2023-05-08T17:21:19.761Z,3.90
2023-05-08T17:21:29.864Z,3.80
2023-05-08T17:21:39.980Z,4.00
2023-05-08T17:21:50.736Z,4.00
2023-05-08T17:22:10.419Z,4.10
2023-05-08T17:22:21.474Z,4.10
2023-05-08T17:22:30.766Z,4.40
2023-05-08T17:22:40.919Z,4.40
2023-05-08T17:22:51.629Z,4.60
2023-05-08T17:23:04.963Z,4.60
2023-05-08T17:23:11.706Z,5.10
2023-05-08T17:23:31.829Z,5.20
2023-05-08T17:23:41.863Z,5.10
2023-05-08T17:23:51.935Z,5.60
2023-05-08T17:24:02.125Z,6.10
2023-05-08T17:24:12.355Z,6.10
2023-05-08T17:24:22.422Z,6.00
2023-05-08T17:24:32.254Z,6.10
2023-05-08T17:24:45.157Z,6.10
